createdAt,value
2023-04-14T00:00:09.430Z,98646.36
2023-04-14T00:02:46.238Z,98650.29
2023-04-14T00:05:15.098Z,98649.65
2023-04-14T00:07:44.297Z,98652.21
2023-04-14T00:10:12.769Z,98651.75
2023-04-14T00:12:41.354Z,98652.90
2023-04-14T00:15:10.672Z,98651.66
2023-04-14T00:17:40.139Z,98649.40
2023-04-14T00:20:10.191Z,98646.42
2023-04-14T00:22:38.780Z,98646.15
2023-04-14T00:25:08.679Z,98644.98
2023-04-14T00:27:38.104Z,98645.45
2023-04-14T00:30:16.613Z,98646.30
2023-04-14T00:32:46.656Z,98649.05
2023-04-14T00:35:15.424Z,98645.59
2023-04-14T00:37:46.676Z,98645.66
2023-04-14T00:40:15.461Z,98645.64
2023-04-14T00:42:44.793Z,98648.54
2023-04-14T00:45:13.450Z,98649.77
2023-04-14T00:47:47.210Z,98652.41
2023-04-14T00:50:18.155Z,98649.56
2023-04-14T00:52:48.122Z,98646.27
2023-04-14T00:55:19.398Z,98640.52
2023-04-14T00:57:47.756Z,98647.30
2023-04-14T01:00:17.571Z,98650.40
2023-04-14T01:02:47.441Z,98652.73
2023-04-14T01:05:17.184Z,98655.91
2023-04-14T01:07:48.678Z,98652.70
2023-04-14T01:10:17.238Z,98654.29
2023-04-14T01:13:09.075Z,98650.19
2023-04-14T01:15:53.048Z,98648.98
2023-04-14T01:18:40.928Z,98646.22
2023-04-14T01:21:20.704Z,98649.17
2023-04-14T01:24:15.104Z,98652.99
2023-04-14T01:26:43.991Z,98657.81
2023-04-14T01:29:30.702Z,98656.78
2023-04-14T01:32:05.854Z,98658.18
2023-04-14T01:34:54.307Z,98665.06
2023-04-14T01:37:35.885Z,98666.33
2023-04-14T01:40:07.965Z,98662.73
2023-04-14T01:42:36.446Z,98665.98
2023-04-14T01:45:11.269Z,98666.27
2023-04-14T01:47:41.300Z,98662.39
2023-04-14T01:50:11.128Z,98663.08
2023-04-14T01:52:43.478Z,98665.84
2023-04-14T01:55:11.860Z,98665.80
2023-04-14T01:57:42.598Z,98672.50
2023-04-14T02:00:11.695Z,98675.17
2023-04-14T02:02:46.133Z,98674.98
2023-04-14T02:05:15.932Z,98676.36
2023-04-14T02:07:47.292Z,98681.45
2023-04-14T02:10:16.484Z,98678.39
2023-04-14T02:12:53.848Z,98677.84
2023-04-14T02:15:40.388Z,98681.46
2023-04-14T02:18:09.591Z,98683.42
2023-04-14T02:20:44.767Z,98684.60
2023-04-14T02:23:28.670Z,98688.02
2023-04-14T02:26:12.523Z,98693.27
2023-04-14T02:28:50.434Z,98692.79
2023-04-14T02:31:22.117Z,98690.89
2023-04-14T02:33:53.845Z,98691.13
2023-04-14T02:36:40.446Z,98694.11
2023-04-14T02:39:14.675Z,98692.29
2023-04-14T02:41:44.683Z,98692.25
2023-04-14T02:44:21.520Z,98696.16
2023-04-14T02:47:07.178Z,98696.77
2023-04-14T02:49:40.675Z,98696.40
2023-04-14T02:52:12.311Z,98701.71
2023-04-14T02:54:42.879Z,98701.80
2023-04-14T02:57:11.640Z,98703.11
2023-04-14T02:59:43.297Z,98704.58
2023-04-14T03:02:12.980Z,98704.11
2023-04-14T03:04:45.695Z,98707.64
2023-04-14T03:07:23.909Z,98705.00
2023-04-14T03:09:52.495Z,98709.84
2023-04-14T03:12:30.199Z,98711.95
2023-04-14T03:14:59.500Z,98708.18
2023-04-14T03:17:29.023Z,98711.96
2023-04-14T03:19:58.857Z,98710.18
2023-04-14T03:24:59.270Z,98710.84
2023-04-14T03:27:30.734Z,98709.70
2023-04-14T03:30:02.312Z,98709.25
2023-04-14T03:32:37.086Z,98714.50
2023-04-14T03:35:08.162Z,98719.80
2023-04-14T03:37:38.627Z,98728.15
2023-04-14T03:40:11.469Z,98733.07
2023-04-14T03:42:44.961Z,98733.48
2023-04-14T03:45:14.487Z,98735.45
2023-04-14T03:47:44.220Z,98732.40
2023-04-14T03:50:15.752Z,98734.77
2023-04-14T03:52:44.437Z,98735.46
2023-04-14T03:55:13.949Z,98737.48
2023-04-14T03:57:44.277Z,98740.84
2023-04-14T04:00:16.045Z,98746.14
2023-04-14T04:02:47.936Z,98750.44
2023-04-14T04:05:17.107Z,98753.53
2023-04-14T04:07:45.706Z,98757.41
2023-04-14T04:10:16.574Z,98757.52
2023-04-14T04:12:45.230Z,98760.86
2023-04-14T04:15:22.427Z,98761.83
2023-04-14T04:17:51.549Z,98762.56
2023-04-14T04:20:20.091Z,98756.79
2023-04-14T04:22:51.465Z,98764.66
2023-04-14T04:25:19.928Z,98763.10
2023-04-14T04:27:54.865Z,98764.30
2023-04-14T04:30:23.657Z,98766.27
2023-04-14T04:32:52.311Z,98767.67
2023-04-14T04:35:20.827Z,98772.49
2023-04-14T04:37:50.237Z,98774.21
2023-04-14T04:40:19.124Z,98776.02
2023-04-14T04:42:50.277Z,98780.35
2023-04-14T04:46:07.098Z,98783.89
2023-04-14T04:48:36.501Z,98793.77
2023-04-14T04:51:06.012Z,98795.20
2023-04-14T04:53:34.899Z,98795.31
2023-04-14T04:56:08.612Z,98800.03
2023-04-14T04:58:39.041Z,98798.86
2023-04-14T05:01:11.378Z,98800.48
2023-04-14T05:03:42.767Z,98801.27
2023-04-14T05:06:11.255Z,98804.33
2023-04-14T05:08:41.578Z,98803.86
2023-04-14T05:11:10.271Z,98806.09
2023-04-14T05:13:38.962Z,98812.24
2023-04-14T05:16:11.200Z,98810.52
2023-04-14T05:18:43.203Z,98814.08
2023-04-14T05:21:15.747Z,98816.29
2023-04-14T05:23:44.913Z,98815.34
2023-04-14T05:28:50.047Z,98814.23
2023-04-14T05:31:18.561Z,98811.06
2023-04-14T05:33:47.321Z,98814.36
2023-04-14T05:36:15.898Z,98815.88
2023-04-14T05:38:44.904Z,98817.94
2023-04-14T05:41:13.482Z,98819.59
2023-04-14T05:43:43.105Z,98821.07
2023-04-14T05:46:11.648Z,98820.92
2023-04-14T05:48:41.819Z,98821.69
2023-04-14T05:51:10.291Z,98824.93
2023-04-14T05:53:38.780Z,98827.80
2023-04-14T05:56:10.331Z,98833.53
2023-04-14T05:58:38.709Z,98837.55
2023-04-14T06:01:10.574Z,98842.68
2023-04-14T06:03:41.119Z,98842.14
2023-04-14T06:06:09.895Z,98846.09
2023-04-14T06:08:39.419Z,98844.85
2023-04-14T06:11:08.210Z,98846.06
2023-04-14T06:13:36.887Z,98845.41
2023-04-14T06:16:06.169Z,98844.96
2023-04-14T06:18:42.557Z,98849.59
2023-04-14T06:21:12.379Z,98844.95
2023-04-14T06:23:41.267Z,98849.04
2023-04-14T06:26:09.650Z,98847.67
2023-04-14T06:28:38.343Z,98847.86
2023-04-14T06:31:07.242Z,98845.90
2023-04-14T06:33:35.721Z,98846.97
2023-04-14T06:36:04.741Z,98842.05
2023-04-14T06:38:34.116Z,98853.82
2023-04-14T06:41:02.523Z,98858.45
2023-04-14T06:43:31.699Z,98860.73
2023-04-14T06:46:00.334Z,98862.59
2023-04-14T06:48:29.081Z,98862.41
2023-04-14T06:50:57.662Z,98865.66
2023-04-14T06:53:26.673Z,98864.62
2023-04-14T06:56:02.426Z,98874.22
2023-04-14T06:58:31.252Z,98882.47
2023-04-14T07:01:01.794Z,98886.30
2023-04-14T07:03:31.437Z,98884.02
2023-04-14T07:06:07.888Z,98889.66
2023-04-14T07:08:36.795Z,98894.93
2023-04-14T07:11:07.306Z,98891.91
2023-04-14T07:13:36.825Z,98894.65
2023-04-14T07:16:08.491Z,98899.29
2023-04-14T07:18:37.415Z,98903.55
2023-04-14T07:21:05.786Z,98902.57
2023-04-14T07:23:35.192Z,98903.77
2023-04-14T07:26:03.895Z,98909.15
2023-04-14T07:28:32.893Z,98914.85
2023-04-14T07:31:11.020Z,98914.67
2023-04-14T07:33:40.605Z,98916.06
2023-04-14T07:36:09.806Z,98916.73
2023-04-14T07:38:38.180Z,98918.55
2023-04-14T07:41:07.279Z,98915.47
2023-04-14T07:43:36.368Z,98919.46
2023-04-14T07:46:07.803Z,98920.45
2023-04-14T07:48:36.620Z,98918.30
2023-04-14T07:51:09.618Z,98916.10
2023-04-14T07:53:43.732Z,98912.59
2023-04-14T07:56:12.978Z,98905.69
2023-04-14T07:58:43.042Z,98903.89
2023-04-14T08:01:11.523Z,98899.60
2023-04-14T08:03:43.576Z,98897.77
2023-04-14T08:06:13.707Z,98900.80
2023-04-14T08:08:43.626Z,98900.34
2023-04-14T08:11:12.616Z,98901.05
2023-04-14T08:13:41.041Z,98903.16
2023-04-14T08:16:09.711Z,98902.91
2023-04-14T08:18:40.523Z,98909.25
2023-04-14T08:21:09.934Z,98907.19
2023-04-14T08:23:39.250Z,98904.27
2023-04-14T08:26:08.529Z,98901.24
2023-04-14T08:28:37.420Z,98901.67
2023-04-14T08:31:06.010Z,98900.80
2023-04-14T08:33:35.927Z,98903.96
2023-04-14T08:36:04.819Z,98910.89
2023-04-14T08:38:35.979Z,98913.60
2023-04-14T08:41:04.960Z,98919.84
2023-04-14T08:43:33.544Z,98923.86
2023-04-14T08:46:07.535Z,98926.47
2023-04-14T08:48:36.761Z,98927.40
2023-04-14T08:51:17.019Z,98924.55
2023-04-14T08:53:46.318Z,98928.48
2023-04-14T08:56:17.555Z,98926.85
2023-04-14T08:58:46.051Z,98923.39
2023-04-14T09:01:15.701Z,98923.45
2023-04-14T09:03:46.048Z,98917.11
2023-04-14T09:06:14.676Z,98915.41
2023-04-14T09:08:48.697Z,98914.11
2023-04-14T09:11:17.989Z,98916.91
2023-04-14T09:13:47.810Z,98919.25
2023-04-14T09:16:17.983Z,98919.93
2023-04-14T09:18:47.849Z,98920.31
2023-04-14T09:21:30.335Z,98924.71
2023-04-14T09:24:11.602Z,98929.11
2023-04-14T09:26:40.940Z,98930.38
2023-04-14T09:29:09.430Z,98932.83
2023-04-14T09:31:38.614Z,98931.61
2023-04-14T09:34:16.355Z,98928.75
2023-04-14T09:37:06.698Z,98937.02
2023-04-14T09:39:37.049Z,98941.67
2023-04-14T09:42:05.748Z,98944.31
2023-04-14T09:44:34.630Z,98943.94
2023-04-14T09:47:08.236Z,98944.42
2023-04-14T09:49:37.655Z,98944.33
2023-04-14T09:52:11.655Z,98949.64
2023-04-14T09:54:40.341Z,98947.39
2023-04-14T09:57:08.932Z,98949.19
2023-04-14T09:59:40.795Z,98951.17
2023-04-14T10:02:09.535Z,98951.67
2023-04-14T10:04:38.399Z,98954.43
2023-04-14T10:07:12.494Z,98956.51
2023-04-14T10:09:42.003Z,98960.45
2023-04-14T10:12:14.684Z,98958.14
2023-04-14T10:14:44.266Z,98957.66
2023-04-14T10:17:13.904Z,98960.76
2023-04-14T10:19:42.391Z,98952.89
2023-04-14T10:22:11.084Z,98954.27
2023-04-14T10:24:40.688Z,98959.17
2023-04-14T10:27:09.486Z,98960.95
2023-04-14T10:29:41.039Z,98967.71
2023-04-14T10:32:09.929Z,98966.36
2023-04-14T10:34:39.136Z,98969.86
2023-04-14T10:37:16.428Z,98976.63
2023-04-14T10:39:44.806Z,98975.83
2023-04-14T10:42:13.599Z,98979.74
2023-04-14T10:44:41.979Z,98982.73
2023-04-14T10:47:11.154Z,98984.89
2023-04-14T10:49:41.503Z,98981.95
2023-04-14T10:52:13.058Z,98984.19
2023-04-14T10:55:01.482Z,98983.34
2023-04-14T10:57:30.512Z,98982.34
2023-04-14T11:00:04.215Z,98984.99
2023-04-14T11:02:35.444Z,98989.04
2023-04-14T11:05:12.960Z,98992.02
2023-04-14T11:07:45.567Z,98992.89
2023-04-14T11:10:17.050Z,98993.71
2023-04-14T11:12:46.220Z,98990.06
2023-04-14T11:15:18.777Z,98990.98
2023-04-14T11:17:49.512Z,98994.21
2023-04-14T11:20:22.405Z,98999.16
2023-04-14T11:22:54.467Z,99000.05
2023-04-14T11:25:24.872Z,98994.55
2023-04-14T11:27:53.994Z,98993.64
2023-04-14T11:30:23.608Z,98994.54
2023-04-14T11:32:54.399Z,98996.02
2023-04-14T11:35:27.107Z,98993.88
2023-04-14T11:37:58.919Z,98994.30
2023-04-14T11:40:27.803Z,98993.61
2023-04-14T11:42:59.172Z,98998.56
2023-04-14T11:45:31.339Z,98989.64
2023-04-14T11:48:02.123Z,98993.92
2023-04-14T11:50:32.699Z,98995.02
2023-04-14T11:53:01.366Z,98999.05
2023-04-14T11:55:31.712Z,99002.80
2023-04-14T11:58:00.483Z,98995.22
2023-04-14T12:00:29.273Z,99002.06
2023-04-14T12:02:58.924Z,99001.58
2023-04-14T12:05:31.873Z,99005.03
2023-04-14T12:08:05.268Z,99005.73
2023-04-14T12:10:36.686Z,99000.90
2023-04-14T12:13:06.762Z,99003.05
2023-04-14T12:15:39.893Z,98999.33
2023-04-14T12:18:14.062Z,99001.88
2023-04-14T12:20:43.474Z,99009.14
2023-04-14T12:23:11.944Z,99000.51
2023-04-14T12:25:46.546Z,99002.49
2023-04-14T12:28:25.364Z,99002.55
2023-04-14T12:30:55.935Z,99005.02
2023-04-14T12:33:27.601Z,99007.11
2023-04-14T12:36:03.646Z,99013.36
2023-04-14T12:38:32.749Z,99011.86
2023-04-14T12:41:01.365Z,99013.63
2023-04-14T12:43:37.294Z,99016.35
2023-04-14T12:46:06.489Z,99018.19
2023-04-14T12:48:48.841Z,99017.63
2023-04-14T12:51:20.783Z,99019.14
2023-04-14T12:53:50.611Z,99016.73
2023-04-14T12:56:22.961Z,99015.33
2023-04-14T12:58:51.709Z,99017.92
2023-04-14T13:01:21.176Z,99018.98
2023-04-14T13:03:52.745Z,99022.63
2023-04-14T13:06:23.126Z,99018.54
2023-04-14T13:08:53.104Z,99013.16
2023-04-14T13:11:22.444Z,99010.94
2023-04-14T13:13:56.372Z,99009.02
2023-04-14T13:16:26.334Z,99006.65
2023-04-14T13:19:03.649Z,99006.17
2023-04-14T13:21:35.340Z,99002.02
2023-04-14T13:24:04.787Z,99004.15
2023-04-14T13:26:33.947Z,99001.70
2023-04-14T13:29:08.991Z,99009.09
2023-04-14T13:31:40.819Z,99004.85
2023-04-14T13:34:11.084Z,99007.72
2023-04-14T13:36:39.673Z,99003.43
2023-04-14T13:39:08.051Z,99001.04
2023-04-14T13:41:36.936Z,98997.15
2023-04-14T13:44:06.035Z,98996.59
2023-04-14T13:46:40.923Z,98995.29
2023-04-14T13:49:13.151Z,98997.91
2023-04-14T13:51:41.624Z,98997.80
2023-04-14T13:54:10.314Z,99002.04
2023-04-14T13:56:39.158Z,99000.38
2023-04-14T13:59:08.404Z,99002.79
2023-04-14T14:01:37.326Z,99005.27
2023-04-14T14:04:07.461Z,99006.77
2023-04-14T14:06:36.520Z,99008.06
2023-04-14T14:09:06.627Z,99008.14
2023-04-14T14:11:42.394Z,99011.20
2023-04-14T14:14:13.125Z,99019.05
2023-04-14T14:16:41.902Z,99018.62
2023-04-14T14:19:17.200Z,99024.72
2023-04-14T14:21:47.379Z,99020.81
2023-04-14T14:24:16.375Z,99026.67
2023-04-14T14:26:47.313Z,99025.68
2023-04-14T14:29:18.153Z,99026.09
2023-04-14T14:31:46.878Z,99034.01
2023-04-14T14:34:16.347Z,99037.02
2023-04-14T14:36:44.724Z,99037.61
2023-04-14T14:39:17.195Z,99037.94
2023-04-14T14:41:48.244Z,99041.41
2023-04-14T14:44:18.159Z,99036.65
2023-04-14T14:46:47.510Z,99047.70
2023-04-14T14:49:16.669Z,99049.40
2023-04-14T14:51:45.654Z,99049.74
2023-04-14T14:54:14.246Z,99052.58
2023-04-14T14:56:43.397Z,99054.67
2023-04-14T14:59:11.875Z,99057.38
2023-04-14T15:01:42.557Z,99057.95
2023-04-14T15:04:12.790Z,99064.14
2023-04-14T15:06:41.222Z,99065.28
2023-04-14T15:09:10.628Z,99068.60
2023-04-14T15:11:39.017Z,99068.07
2023-04-14T15:14:07.927Z,99069.31
2023-04-14T15:16:37.526Z,99076.31
2023-04-14T15:19:13.639Z,99074.73
2023-04-14T15:21:43.528Z,99076.55
2023-04-14T15:24:12.118Z,99074.31
2023-04-14T15:26:47.582Z,99082.59
2023-04-14T15:29:25.203Z,99081.30
2023-04-14T15:31:54.586Z,99082.49
2023-04-14T15:34:23.787Z,99081.69
2023-04-14T15:36:54.115Z,99085.06
2023-04-14T15:39:22.593Z,99089.89
2023-04-14T15:42:29.074Z,99092.64
2023-04-14T15:44:58.052Z,99098.14
2023-04-14T15:47:28.696Z,99102.89
2023-04-14T15:50:08.516Z,99098.95
2023-04-14T15:52:40.042Z,99099.64
2023-04-14T15:55:09.584Z,99104.16
2023-04-14T15:57:41.054Z,99105.89
2023-04-14T16:00:10.109Z,99113.37
2023-04-14T16:02:43.932Z,99117.55
2023-04-14T16:05:16.822Z,99122.05
2023-04-14T16:07:46.764Z,99125.20
2023-04-14T16:10:15.963Z,99127.14
2023-04-14T16:12:44.652Z,99128.92
2023-04-14T16:15:14.059Z,99132.21
2023-04-14T16:17:44.019Z,99136.77
2023-04-14T16:20:12.981Z,99138.65
2023-04-14T16:22:42.886Z,99140.77
2023-04-14T16:25:11.250Z,99143.63
2023-04-14T16:27:39.959Z,99146.16
2023-04-14T16:30:08.845Z,99149.00
2023-04-14T16:32:51.284Z,99145.92
2023-04-14T16:35:19.742Z,99153.72
2023-04-14T16:37:49.248Z,99154.27
2023-04-14T16:40:18.348Z,99158.06
2023-04-14T16:42:47.544Z,99155.41
2023-04-14T16:45:19.196Z,99161.81
2023-04-14T16:47:48.845Z,99163.26
2023-04-14T16:50:17.603Z,99168.45
2023-04-14T16:52:46.394Z,99166.96
2023-04-14T16:55:16.108Z,99171.20
2023-04-14T16:57:47.846Z,99173.80
2023-04-14T17:00:17.885Z,99179.91
2023-04-14T17:02:47.528Z,99183.11
2023-04-14T17:05:16.863Z,99185.98
2023-04-14T17:07:49.649Z,99189.28
2023-04-14T17:10:18.450Z,99192.77
2023-04-14T17:12:47.580Z,99195.00
2023-04-14T17:15:18.582Z,99195.31
2023-04-14T17:17:47.100Z,99196.37
2023-04-14T17:20:15.847Z,99199.56
2023-04-14T17:22:44.640Z,99201.83
2023-04-14T17:25:13.120Z,99202.60
2023-04-14T17:27:41.608Z,99203.19
2023-04-14T17:30:15.719Z,99205.03
2023-04-14T17:32:45.870Z,99205.71
2023-04-14T17:35:14.426Z,99208.48
2023-04-14T17:37:48.026Z,99214.02
2023-04-14T17:40:16.509Z,99217.84
2023-04-14T17:42:44.993Z,99217.88
2023-04-14T17:45:13.575Z,99216.98
2023-04-14T17:47:42.117Z,99217.23
2023-04-14T17:50:16.092Z,99218.74
2023-04-14T17:52:47.318Z,99213.96
2023-04-14T17:55:16.622Z,99216.60
2023-04-14T17:58:05.290Z,99215.56
2023-04-14T18:00:34.169Z,99215.41
2023-04-14T18:03:04.558Z,99214.72
2023-04-14T18:05:33.082Z,99215.19
2023-04-14T18:08:01.778Z,99212.20
2023-04-14T18:10:33.274Z,99209.33
2023-04-14T18:13:02.013Z,99210.17
2023-04-14T18:15:30.604Z,99217.26
2023-04-14T18:18:05.662Z,99213.70
2023-04-14T18:20:34.625Z,99211.30
2023-04-14T18:23:03.208Z,99210.52
2023-04-14T18:28:07.448Z,99205.10
2023-04-14T18:30:35.999Z,99206.92
2023-04-14T18:33:04.454Z,99211.30
2023-04-14T18:35:34.638Z,99214.02
2023-04-14T18:38:03.019Z,99215.02
2023-04-14T18:40:32.800Z,99214.21
2023-04-14T18:43:01.840Z,99217.25
2023-04-14T18:45:30.512Z,99216.00
2023-04-14T18:48:03.137Z,99219.17
2023-04-14T18:50:32.905Z,99221.02
2023-04-14T18:53:01.388Z,99220.71
2023-04-14T18:55:44.684Z,99225.10
2023-04-14T18:58:13.936Z,99222.59
2023-04-14T19:00:45.262Z,99225.58
2023-04-14T19:03:15.884Z,99226.48
2023-04-14T19:05:45.207Z,99229.89
2023-04-14T19:08:15.299Z,99230.69
2023-04-14T19:10:49.554Z,99225.86
2023-04-14T19:13:18.438Z,99221.14
2023-04-14T19:15:47.259Z,99218.23
2023-04-14T19:18:17.185Z,99219.51
2023-04-14T19:20:50.235Z,99214.29
2023-04-14T19:23:19.746Z,99213.41
2023-04-14T19:25:49.044Z,99206.21
2023-04-14T19:28:18.568Z,99200.98
2023-04-14T19:30:48.738Z,99203.00
2023-04-14T19:33:17.462Z,99200.55
2023-04-14T19:35:46.152Z,99199.89
2023-04-14T19:38:15.759Z,99199.11
2023-04-14T19:40:50.666Z,99204.44
2023-04-14T19:43:20.403Z,99209.37
2023-04-14T19:45:52.997Z,99208.27
2023-04-14T19:48:23.897Z,99203.36
2023-04-14T19:50:54.940Z,99208.11
2023-04-14T19:53:24.524Z,99213.23
2023-04-14T19:55:57.157Z,99203.85
2023-04-14T19:58:27.060Z,99207.57
2023-04-14T20:00:59.040Z,99213.40
2023-04-14T20:03:28.641Z,99216.57
2023-04-14T20:05:57.446Z,99221.41
2023-04-14T20:08:27.631Z,99220.39
2023-04-14T20:10:57.994Z,99220.67
2023-04-14T20:13:30.873Z,99224.63
2023-04-14T20:16:01.716Z,99231.25
2023-04-14T20:18:34.197Z,99232.48
2023-04-14T20:21:02.990Z,99236.27
2023-04-14T20:23:33.003Z,99239.85
2023-04-14T20:26:07.020Z,99241.50
2023-04-14T20:28:36.930Z,99249.39
2023-04-14T20:31:06.986Z,99252.52
2023-04-14T20:33:37.089Z,99253.52
2023-04-14T20:36:06.377Z,99261.89
2023-04-14T20:38:35.167Z,99266.21
2023-04-14T20:41:05.288Z,99267.57
2023-04-14T20:43:34.620Z,99279.61
2023-04-14T20:46:04.322Z,99281.46
2023-04-14T20:48:35.659Z,99285.55
2023-04-14T20:51:04.987Z,99290.39
2023-04-14T20:53:35.498Z,99291.92
2023-04-14T20:56:07.759Z,99291.34
2023-04-14T20:58:37.368Z,99297.90
2023-04-14T21:01:06.449Z,99303.83
2023-04-14T21:03:36.904Z,99309.09
2023-04-14T21:06:06.379Z,99314.44
2023-04-14T21:08:35.404Z,99320.91
2023-04-14T21:11:17.109Z,99320.67
2023-04-14T21:15:25.132Z,99330.31
2023-04-14T21:16:37.433Z,99339.77
2023-04-14T21:19:06.662Z,99340.71
2023-04-14T21:21:43.181Z,99341.86
2023-04-14T21:24:12.274Z,99343.95
2023-04-14T21:26:40.657Z,99351.17
2023-04-14T21:29:14.769Z,99356.16
2023-04-14T21:31:45.427Z,99354.52
2023-04-14T21:34:14.446Z,99354.54
2023-04-14T21:36:44.421Z,99357.14
2023-04-14T21:39:13.723Z,99361.69
2023-04-14T21:41:42.898Z,99363.67
2023-04-14T21:44:11.324Z,99364.20
2023-04-14T21:46:39.884Z,99364.88
2023-04-14T21:49:09.803Z,99357.84
2023-04-14T21:51:38.288Z,99365.71
2023-04-14T21:54:07.289Z,99366.83
2023-04-14T21:56:35.868Z,99364.54
2023-04-14T21:59:08.369Z,99368.29
2023-04-14T22:01:37.309Z,99368.84
2023-04-14T22:04:06.753Z,99372.44
2023-04-14T22:06:38.401Z,99374.97
2023-04-14T22:09:10.366Z,99377.03
2023-04-14T22:11:39.073Z,99369.35
2023-04-14T22:14:07.638Z,99374.44
2023-04-14T22:16:37.481Z,99372.42
2023-04-14T22:19:09.328Z,99372.95
2023-04-14T22:21:38.019Z,99377.85
2023-04-14T22:24:07.419Z,99381.16
2023-04-14T22:26:36.711Z,99385.48
2023-04-14T22:29:05.909Z,99385.20
2023-04-14T22:31:34.300Z,99382.82
2023-04-14T22:34:04.205Z,99375.17
2023-04-14T22:36:33.201Z,99374.23
2023-04-14T22:39:01.766Z,99378.48
2023-04-14T22:41:30.685Z,99378.30
2023-04-14T22:43:59.467Z,99376.98
2023-04-14T22:46:31.171Z,99379.95
2023-04-14T22:48:59.836Z,99374.87
2023-04-14T22:51:28.812Z,99372.33
2023-04-14T22:53:59.949Z,99371.39
2023-04-14T22:56:29.865Z,99369.92
2023-04-14T22:58:59.416Z,99369.84
2023-04-14T23:01:29.859Z,99367.35
2023-04-14T23:03:59.761Z,99359.08
2023-04-14T23:06:28.202Z,99350.95
2023-04-14T23:08:59.833Z,99343.78
2023-04-14T23:11:32.234Z,99343.27
2023-04-14T23:14:01.222Z,99347.47
2023-04-14T23:16:35.436Z,99351.36
2023-04-14T23:19:07.295Z,99353.35
2023-04-14T23:21:36.088Z,99355.85
2023-04-14T23:24:05.289Z,99356.41
2023-04-14T23:26:34.700Z,99355.90
2023-04-14T23:29:03.879Z,99354.13
2023-04-14T23:31:32.442Z,99346.92
2023-04-14T23:34:07.814Z,99359.55
2023-04-14T23:36:37.315Z,99349.38
2023-04-14T23:39:05.955Z,99353.33
2023-04-14T23:41:36.941Z,99346.59
2023-04-14T23:44:06.651Z,99348.52
2023-04-14T23:46:35.368Z,99351.31
2023-04-14T23:49:11.083Z,99358.71
2023-04-14T23:51:53.393Z,99357.28
2023-04-14T23:54:21.980Z,99361.83
2023-04-14T23:56:51.895Z,99367.44
2023-04-14T23:59:20.377Z,99372.37
